createdAt,value
2019-02-22T00:02:46.192Z,101865.09
2019-02-22T00:07:50.346Z,101871.73
2019-02-22T00:12:54.367Z,101890.90
2019-02-22T00:17:58.378Z,101888.63
2019-02-22T00:23:02.398Z,101905.48
2019-02-22T00:28:06.430Z,101918.19
2019-02-22T00:33:10.469Z,101918.03
2019-02-22T00:38:14.511Z,101923.55
2019-02-22T00:43:18.551Z,101935.55
2019-02-22T00:48:22.571Z,101938.78
2019-02-22T00:53:26.585Z,101952.92
2019-02-22T00:58:36.057Z,101954.61
2019-02-22T01:03:40.198Z,101956.45
2019-02-22T01:08:44.197Z,101968.63
2019-02-22T01:13:48.280Z,101979.84
2019-02-22T01:18:52.326Z,101989.48
2019-02-22T01:23:56.414Z,101998.83
2019-02-22T01:29:00.429Z,102008.19
2019-02-22T01:34:04.442Z,102018.41
2019-02-22T01:39:08.473Z,102032.91
2019-02-22T01:44:22.648Z,102032.73
2019-02-22T01:49:26.669Z,102044.75
2019-02-22T01:54:30.706Z,102051.59
2019-02-22T01:59:34.716Z,102054.60
2019-02-22T02:04:38.738Z,102070.31
2019-02-22T02:09:42.746Z,102068.28
2019-02-22T02:14:46.820Z,102074.31
2019-02-22T02:19:50.847Z,102078.31
2019-02-22T02:24:54.872Z,102081.84
2019-02-22T02:29:58.890Z,102101.98
2019-02-22T02:35:02.914Z,102107.83
2019-02-22T02:40:07.466Z,102118.67
2019-02-22T02:45:11.491Z,102121.50
2019-02-22T02:50:17.385Z,102126.32
2019-02-22T02:55:32.081Z,102136.51
2019-02-22T03:00:36.093Z,102147.31
2019-02-22T03:06:08.200Z,102158.33
2019-02-22T03:11:20.683Z,102158.84
2019-02-22T03:16:18.022Z,102171.18
2019-02-22T03:21:22.022Z,102182.02
2019-02-22T03:26:26.045Z,102182.36
2019-02-22T03:31:30.114Z,102186.35
2019-02-22T03:36:34.127Z,102203.03
2019-02-22T03:41:38.144Z,102206.86
2019-02-22T03:46:42.163Z,102215.36
2019-02-22T03:51:46.173Z,102228.19
2019-02-22T03:56:50.187Z,102243.15
2019-02-22T04:01:54.192Z,102252.29
2019-02-22T04:06:58.213Z,102266.77
2019-02-22T04:12:02.213Z,102286.59
2019-02-22T04:17:06.234Z,102295.86
2019-02-22T04:22:10.254Z,102305.84
2019-02-22T04:27:14.285Z,102320.25
2019-02-22T04:32:18.304Z,102331.95
2019-02-22T04:37:22.475Z,102358.50
2019-02-22T04:42:26.524Z,102378.98
2019-02-22T04:47:30.542Z,102397.02
2019-02-22T04:52:34.542Z,102418.33
2019-02-22T04:57:38.554Z,102434.97
2019-02-22T05:02:42.600Z,102442.52
2019-02-22T05:07:46.610Z,102461.67
2019-02-22T05:12:50.608Z,102476.94
2019-02-22T05:17:54.637Z,102491.00
2019-02-22T05:23:03.855Z,102502.14
2019-02-22T05:28:04.415Z,102518.27
2019-02-22T05:33:08.450Z,102528.58
2019-02-22T05:38:12.489Z,102543.81
2019-02-22T05:43:16.564Z,102558.52
2019-02-22T05:48:20.591Z,102568.03
2019-02-22T05:53:24.624Z,102584.50
2019-02-22T05:58:28.640Z,102587.23
2019-02-22T06:03:32.644Z,102608.53
2019-02-22T06:08:36.663Z,102615.50
2019-02-22T06:13:40.681Z,102638.05
2019-02-22T06:18:44.711Z,102662.97
2019-02-22T06:23:49.046Z,102692.88
2019-02-22T06:28:53.130Z,102709.78
2019-02-22T06:33:57.142Z,102721.77
2019-02-22T06:39:01.159Z,102734.89
2019-02-22T06:44:05.163Z,102759.95
2019-02-22T06:49:09.193Z,102748.72
2019-02-22T06:54:13.205Z,102784.89
2019-02-22T06:59:17.214Z,102807.01
2019-02-22T07:04:21.235Z,102813.56
2019-02-22T07:09:25.229Z,102831.81
2019-02-22T07:14:29.548Z,102840.30
2019-02-22T07:19:33.567Z,102864.85
2019-02-22T07:24:37.680Z,102880.04
2019-02-22T07:29:41.688Z,102888.84
2019-02-22T07:34:45.775Z,102908.22
2019-02-22T07:39:49.806Z,102921.10
2019-02-22T07:44:53.825Z,102940.74
2019-02-22T07:49:57.848Z,102951.80
2019-02-22T07:55:01.890Z,102967.47
2019-02-22T08:00:07.721Z,102988.02
2019-02-22T08:05:11.833Z,103013.77
2019-02-22T08:10:15.841Z,103016.41
2019-02-22T08:15:19.899Z,103028.34
2019-02-22T08:20:23.925Z,103039.58
2019-02-22T08:25:27.954Z,103060.63
2019-02-22T08:30:31.962Z,103051.99
2019-02-22T08:35:35.986Z,103069.98
2019-02-22T08:40:40.005Z,103075.52
2019-02-22T08:45:44.066Z,103087.19
2019-02-22T08:50:48.098Z,103108.41
2019-02-22T08:55:52.149Z,103118.39
2019-02-22T09:00:56.167Z,103130.09
2019-02-22T09:06:00.193Z,103142.73
2019-02-22T09:11:04.223Z,103156.47
2019-02-22T09:16:08.224Z,103161.33
2019-02-22T09:21:12.271Z,103168.95
2019-02-22T09:26:16.300Z,103186.36
2019-02-22T09:31:20.299Z,103194.45
2019-02-22T09:36:24.312Z,103201.19
2019-02-22T09:41:28.328Z,103207.20
2019-02-22T09:46:32.359Z,103210.19
2019-02-22T09:51:36.355Z,103223.32
2019-02-22T09:56:40.451Z,103224.78
2019-02-22T10:01:44.491Z,103228.50
2019-02-22T10:06:48.499Z,103238.09
2019-02-22T10:11:52.523Z,103238.04
2019-02-22T10:16:56.532Z,103237.02
2019-02-22T10:22:00.566Z,103248.50
2019-02-22T10:27:04.747Z,103250.11
2019-02-22T10:32:08.761Z,103265.56
2019-02-22T10:37:12.820Z,103259.76
2019-02-22T10:42:16.840Z,103254.55
2019-02-22T10:47:20.877Z,103255.71
2019-02-22T10:52:24.922Z,103270.16
2019-02-22T10:57:28.933Z,103264.52
2019-02-22T11:02:32.946Z,103273.53
2019-02-22T11:07:37.366Z,103272.43
2019-02-22T11:12:41.497Z,103275.13
2019-02-22T11:17:45.945Z,103273.30
2019-02-22T11:22:50.242Z,103284.86
2019-02-22T11:27:54.332Z,103289.58
2019-02-22T11:32:58.426Z,103289.44
2019-02-22T11:38:02.455Z,103297.24
2019-02-22T11:43:06.488Z,103298.91
2019-02-22T11:48:10.498Z,103301.27
2019-02-22T11:53:14.565Z,103307.54
2019-02-22T11:58:18.667Z,103296.38
2019-02-22T12:03:24.963Z,103326.28
2019-02-22T12:08:28.556Z,103332.09
2019-02-22T12:13:32.590Z,103343.08
2019-02-22T12:18:37.301Z,103351.38
2019-02-22T12:23:41.320Z,103355.35
2019-02-22T12:28:45.333Z,103365.59
2019-02-22T12:33:49.382Z,103362.07
2019-02-22T12:38:53.410Z,103377.70
2019-02-22T12:43:59.870Z,103387.73
2019-02-22T12:49:03.168Z,103387.34
2019-02-22T12:54:07.983Z,103384.41
2019-02-22T12:59:12.012Z,103386.78
2019-02-22T13:04:16.039Z,103390.23
2019-02-22T13:09:20.078Z,103384.77
2019-02-22T13:14:24.104Z,103387.92
2019-02-22T13:19:28.142Z,103411.09
2019-02-22T13:24:32.164Z,103404.50
2019-02-22T13:29:36.185Z,103405.23
2019-02-22T13:34:41.895Z,103417.72
2019-02-22T13:39:45.885Z,103419.96
2019-02-22T13:44:49.935Z,103422.55
2019-02-22T13:49:54.023Z,103425.51
2019-02-22T13:54:58.045Z,103432.27
2019-02-22T14:00:02.071Z,103429.56
2019-02-22T14:05:06.299Z,103435.09
2019-02-22T14:10:10.337Z,103437.91
2019-02-22T14:15:14.308Z,103435.84
2019-02-22T14:20:18.384Z,103452.76
2019-02-22T14:25:22.426Z,103439.38
2019-02-22T14:30:26.613Z,103439.04
2019-02-22T14:35:30.629Z,103448.70
2019-02-22T14:40:35.551Z,103456.05
2019-02-22T14:45:48.782Z,103465.86
2019-02-22T14:50:45.381Z,103475.45
2019-02-22T14:55:49.390Z,103479.50
2019-02-22T15:00:53.446Z,103485.66
2019-02-22T15:05:57.453Z,103492.84
2019-02-22T15:11:01.480Z,103497.16
2019-02-22T15:16:39.440Z,103495.95
2019-02-22T15:21:43.480Z,103500.05
2019-02-22T15:26:47.512Z,103512.40
2019-02-22T15:31:51.524Z,103518.53
2019-02-22T15:36:55.602Z,103517.94
2019-02-22T15:41:59.624Z,103527.11
2019-02-22T15:47:11.485Z,103544.23
2019-02-22T15:52:10.369Z,103542.02
2019-02-22T15:57:14.520Z,103536.37
2019-02-22T16:02:18.522Z,103549.28
2019-02-22T16:07:22.560Z,103554.53
2019-02-22T16:12:26.604Z,103556.75
2019-02-22T16:17:30.604Z,103574.42
2019-02-22T16:22:34.635Z,103578.70
2019-02-22T16:27:38.644Z,103579.30
2019-02-22T16:32:42.667Z,103594.75
2019-02-22T16:37:46.678Z,103608.52
2019-02-22T16:42:50.681Z,103616.69
2019-02-22T16:47:54.802Z,103622.38
2019-02-22T16:52:58.813Z,103632.59
2019-02-22T16:58:02.833Z,103640.55
2019-02-22T17:03:06.873Z,103651.60
2019-02-22T17:08:10.936Z,103641.08
2019-02-22T17:13:15.036Z,103652.79
2019-02-22T17:18:19.068Z,103666.09
2019-02-22T17:23:23.090Z,103648.33
2019-02-22T17:28:27.115Z,103661.89
2019-02-22T17:33:31.260Z,103673.36
2019-02-22T17:38:35.427Z,103681.97
2019-02-22T17:43:39.427Z,103689.08
2019-02-22T17:48:43.448Z,103702.66
2019-02-22T17:53:47.494Z,103700.73
2019-02-22T17:58:51.511Z,103716.88
2019-02-22T18:03:55.546Z,103718.42
2019-02-22T18:08:59.555Z,103721.94
2019-02-22T18:14:03.591Z,103714.11
2019-02-22T18:19:07.599Z,103725.25
2019-02-22T18:24:11.626Z,103727.64
2019-02-22T18:29:15.637Z,103735.01
2019-02-22T18:34:19.659Z,103742.02
2019-02-22T18:39:23.760Z,103724.09
2019-02-22T18:44:27.776Z,103729.38
2019-02-22T18:49:31.797Z,103741.48
2019-02-22T18:54:35.812Z,103749.52
2019-02-22T18:59:39.817Z,103764.92
2019-02-22T19:04:43.960Z,103760.85
2019-02-22T19:09:48.334Z,103773.98
2019-02-22T19:14:52.679Z,103769.24
2019-02-22T19:19:56.774Z,103769.34
2019-02-22T19:25:01.124Z,103779.16
2019-02-22T19:30:05.764Z,103789.91
2019-02-22T19:35:09.830Z,103798.13
2019-02-22T19:40:16.162Z,103797.00
2019-02-22T19:45:20.311Z,103799.91
2019-02-22T19:50:24.386Z,103798.75
2019-02-22T19:55:28.493Z,103802.81
2019-02-22T20:00:32.562Z,103793.27
2019-02-22T20:05:36.609Z,103793.56
2019-02-22T20:10:40.672Z,103785.79
2019-02-22T20:15:44.761Z,103793.87
2019-02-22T20:20:48.910Z,103796.11
2019-02-22T20:25:53.197Z,103797.97
2019-02-22T20:30:57.260Z,103806.55
2019-02-22T20:36:01.320Z,103812.10
2019-02-22T20:41:05.373Z,103823.14
2019-02-22T20:46:09.529Z,103835.91
2019-02-22T20:51:13.569Z,103836.17
2019-02-22T20:56:17.623Z,103826.44
2019-02-22T21:01:21.678Z,103827.31
2019-02-22T21:06:25.716Z,103831.88
2019-02-22T21:11:29.768Z,103835.41
2019-02-22T21:16:33.815Z,103838.44
2019-02-22T21:21:37.896Z,103841.02
2019-02-22T21:26:41.926Z,103849.28
2019-02-22T21:31:45.955Z,103852.17
2019-02-22T21:36:50.003Z,103854.36
2019-02-22T21:41:54.042Z,103868.80
2019-02-22T21:46:58.067Z,103876.45
2019-02-22T21:52:02.099Z,103871.91
2019-02-22T21:57:06.108Z,103875.70
2019-02-22T22:02:10.134Z,103889.64
2019-02-22T22:07:14.192Z,103909.38
2019-02-22T22:12:18.196Z,103918.53
2019-02-22T22:17:22.219Z,103916.81
2019-02-22T22:22:26.234Z,103922.80
2019-02-22T22:27:30.262Z,103937.60
2019-02-22T22:32:34.307Z,103950.86
2019-02-22T22:37:38.315Z,103949.23
2019-02-22T22:42:42.332Z,103947.91
2019-02-22T22:47:46.349Z,103957.64
2019-02-22T22:52:50.359Z,103960.59
2019-02-22T22:57:54.372Z,103957.03
2019-02-22T23:02:58.403Z,103953.94
2019-02-22T23:08:02.431Z,103948.11
2019-02-22T23:13:06.448Z,103939.59
2019-02-22T23:18:10.513Z,103935.98
2019-02-22T23:23:14.519Z,103941.33
2019-02-22T23:28:18.528Z,103952.57
2019-02-22T23:33:22.548Z,103978.28
2019-02-22T23:38:28.128Z,103981.58
2019-02-22T23:43:33.225Z,104001.73
2019-02-22T23:48:37.258Z,104011.88
2019-02-22T23:53:41.282Z,104006.09
2019-02-22T23:58:45.287Z,104001.27
